Time;durP1;ratioP1;P1;durP2;ratioP2;P2;SDS_P1;SDS_P2;PMS_P1;PMS_P2;Temp;Humidity;BMP_temperature;BMP_pressure;BME280_temperature;BME280_humidity;BME280_pressure;Samples;Min_cycle;Max_cycle;Signal;HPM_P1;HPM_P2
2022/09/17 00:00:30;;;;;;;;;;;;;;;;;;5101373;28;1032;-81
2022/09/17 00:02:55;;;;;;;;;;;;;;;;;;5101398;28;1980;-81
2022/09/17 00:05:21;;;;;;;;;;;;;;;;;;5100719;28;841;-80
2022/09/17 00:07:47;;;;;;;;;;;;;;;;;;5101496;28;849;-81
2022/09/17 00:10:12;;;;;;;;;;;;;;;;;;5101429;28;850;-81
2022/09/17 00:12:37;;;;;;;;;;;;;;;;;;5101286;28;1250;-81
2022/09/17 00:15:02;;;;;;;;;;;;;;;;;;5100869;28;902;-81
2022/09/17 00:17:27;;;;;;;;;;;;;;;;;;5101520;28;929;-81
2022/09/17 00:19:53;;;;;;;;;;;;;;;;;;5101345;28;993;-81
2022/09/17 00:22:18;;;;;;;;;;;;;;;;;;5101041;28;1171;-80
2022/09/17 00:24:43;;;;;;;;;;;;;;;;;;5100525;28;1898;-81
2022/09/17 00:27:08;;;;;;;;;;;;;;;;;;5101099;28;933;-81
2022/09/17 00:29:33;;;;;;;;;;;;;;;;;;5101197;28;1044;-81
2022/09/17 00:31:58;;;;;;;;;;;;;;;;;;5101972;28;1151;-81
2022/09/17 00:34:24;;;;;;;;;;;;;;;;;;5104341;28;795;-81
2022/09/17 00:36:49;;;;;;;;;;;;;;;;;;5104247;28;889;-81
2022/09/17 00:39:15;;;;;;;;;;;;;;;;;;5104713;28;993;-81
2022/09/17 00:41:40;;;;;;;;;;;;;;;;;;5104479;28;1199;-81
2022/09/17 00:44:25;;;;;;;;;;;;;;;;;;5104605;28;1898;-81
2022/09/17 00:46:52;;;;;;;;;;;;;;;;;;5104186;28;904;-81
2022/09/17 00:49:23;;;;;;;;;;;;;;;;;;5104544;28;885;-81
2022/09/17 00:51:51;;;;;;;;;;;;;;;;;;5086002;28;1234;-81
2022/09/17 00:54:17;;;;;;;;;;;;;;;;;;5104532;28;892;-81
2022/09/17 00:56:42;;;;;;;;;;;;;;;;;;5103774;28;806;-81
2022/09/17 00:59:08;;;;;;;;;;;;;;;;;;5104543;28;985;-81
2022/09/17 01:01:33;;;;;;;;;;;;;;;;;;5104159;28;1120;-81
2022/09/17 01:03:58;;;;;;;;;;;;;;;;;;5104010;28;1898;-82
2022/09/17 01:06:33;;;;;;;;;;;;;;;;;;5103691;28;1059;-81
2022/09/17 01:08:58;;;;;;;;;;;;;;;;;;5104249;28;952;-81
2022/09/17 01:11:42;;;;;;;;;;;;;;;;;;5104131;28;1245;-81
2022/09/17 01:14:13;;;;;;;;;;;;;;;;;;5104161;28;1048;-81
2022/09/17 01:16:40;;;;;;;;;;;;;;;;;;5103246;28;1185;-81
2022/09/17 01:19:22;;;;;;;;;;;;;;;;;;5104064;28;830;-81
2022/09/17 01:21:47;;;;;;;;;;;;;;;;;;5103937;28;1136;-81
2022/09/17 01:24:31;;;;;;;;;;;;;;;;;;5104221;28;1901;-81
2022/09/17 01:26:59;;;;;;;;;;;;;;;;;;5103795;28;884;-81
2022/09/17 01:29:43;;;;;;;;;;;;;;;;;;5103930;28;992;-81
2022/09/17 01:32:29;;;;;;;;;;;;;;;;;;5103596;28;1239;-81
2022/09/17 01:34:54;;;;;;;;;;;;;;;;;;5103199;28;885;-81
2022/09/17 01:37:27;;;;;;;;;;;;;;;;;;5103534;28;1016;-80
2022/09/17 01:39:53;;;;;;;;;;;;;;;;;;5103820;28;845;-80
2022/09/17 01:42:21;;;;;;;;;;;;;;;;;;5100494;28;1263;-81
2022/09/17 01:44:52;;;;;;;;;;;;;;;;;;5081700;28;1956;-81
2022/09/17 01:47:29;;;;;;;;;;;;;;;;;;5083209;28;949;-80
2022/09/17 01:49:56;;;;;;;;;;;;;;;;;;5083219;28;942;-80
2022/09/17 01:52:23;;;;;;;;;;;;;;;;;;5082869;28;1163;-81
2022/09/17 01:54:50;;;;;;;;;;;;;;;;;;5082174;28;1064;-81
2022/09/17 01:57:18;;;;;;;;;;;;;;;;;;5083211;28;831;-80
2022/09/17 01:59:46;;;;;;;;;;;;;;;;;;5082930;28;1159;-81
2022/09/17 02:02:17;;;;;;;;;;;;;;;;;;5082843;28;1262;-80
2022/09/17 02:04:47;;;;;;;;;;;;;;;;;;5082196;28;1890;-80
2022/09/17 02:07:19;;;;;;;;;;;;;;;;;;5083070;28;791;-80
2022/09/17 02:09:47;;;;;;;;;;;;;;;;;;5082903;28;857;-80
2022/09/17 02:12:14;;;;;;;;;;;;;;;;;;5082743;28;1179;-80
2022/09/17 02:14:51;;;;;;;;;;;;;;;;;;5082173;28;981;-80
2022/09/17 02:17:37;;;;;;;;;;;;;;;;;;5082812;28;1049;-80
2022/09/17 02:20:03;;;;;;;;;;;;;;;;;;5082742;28;874;-81
2022/09/17 02:22:35;;;;;;;;;;;;;;;;;;5082773;28;1152;-80
2022/09/17 02:25:11;;;;;;;;;;;;;;;;;;5082253;28;1947;-81
2022/09/17 02:27:41;;;;;;;;;;;;;;;;;;5082688;28;818;-81
2022/09/17 02:30:07;;;;;;;;;;;;;;;;;;5082583;28;890;-80
2022/09/17 02:32:32;;;;;;;;;;;;;;;;;;5082590;28;1112;-81
2022/09/17 02:34:57;;;;;;;;;;;;;;;;;;5081816;28;1000;-80
2022/09/17 02:37:23;;;;;;;;;;;;;;;;;;5064549;28;977;-81
2022/09/17 02:39:48;;;;;;;;;;;;;;;;;;5082340;28;1056;-80
2022/09/17 02:42:28;;;;;;;;;;;;;;;;;;5082479;28;1239;-80
2022/09/17 02:44:58;;;;;;;;;;;;;;;;;;5081487;28;1889;-80
2022/09/17 02:47:45;;;;;;;;;;;;;;;;;;5082385;28;1024;-80
2022/09/17 02:50:20;;;;;;;;;;;;;;;;;;5082330;28;834;-80
2022/09/17 02:52:56;;;;;;;;;;;;;;;;;;5082186;28;1238;-80
2022/09/17 02:55:38;;;;;;;;;;;;;;;;;;5081381;28;957;-80
2022/09/17 02:58:11;;;;;;;;;;;;;;;;;;5082248;28;869;-80
2022/09/17 03:00:36;;;;;;;;;;;;;;;;;;5082040;28;854;-80
2022/09/17 03:03:05;;;;;;;;;;;;;;;;;;5082180;28;1894;-80
2022/09/17 03:05:31;;;;;;;;;;;;;;;;;;5081351;28;937;-80
2022/09/17 03:07:58;;;;;;;;;;;;;;;;;;5082029;28;914;-80
2022/09/17 03:10:23;;;;;;;;;;;;;;;;;;5081960;28;862;-80
2022/09/17 03:12:48;;;;;;;;;;;;;;;;;;5081853;28;1152;-80
2022/09/17 03:15:13;;;;;;;;;;;;;;;;;;5081150;28;981;-80
2022/09/17 03:17:38;;;;;;;;;;;;;;;;;;5082189;28;874;-80
2022/09/17 03:20:04;;;;;;;;;;;;;;;;;;5082085;28;909;-80
2022/09/17 03:22:29;;;;;;;;;;;;;;;;;;5082203;28;1164;-80
2022/09/17 03:24:55;;;;;;;;;;;;;;;;;;5081012;28;1902;-80
2022/09/17 03:27:20;;;;;;;;;;;;;;;;;;5081803;28;810;-80
2022/09/17 03:29:45;;;;;;;;;;;;;;;;;;5081713;28;866;-80
2022/09/17 03:32:10;;;;;;;;;;;;;;;;;;5081581;28;1251;-80
2022/09/17 03:34:35;;;;;;;;;;;;;;;;;;5080999;28;798;-80
2022/09/17 03:37:01;;;;;;;;;;;;;;;;;;5081590;28;890;-80
2022/09/17 03:39:27;;;;;;;;;;;;;;;;;;5081609;28;889;-80
2022/09/17 03:41:52;;;;;;;;;;;;;;;;;;5081382;28;1175;-80
2022/09/17 03:44:18;;;;;;;;;;;;;;;;;;5081424;28;1956;-80
2022/09/17 03:46:43;;;;;;;;;;;;;;;;;;5080421;28;819;-80
2022/09/17 03:49:09;;;;;;;;;;;;;;;;;;5081811;28;1029;-80
2022/09/17 03:51:34;;;;;;;;;;;;;;;;;;5081141;28;1278;-80
2022/09/17 03:53:59;;;;;;;;;;;;;;;;;;5081323;28;901;-80
2022/09/17 03:56:25;;;;;;;;;;;;;;;;;;5080611;28;847;-80
2022/09/17 03:58:50;;;;;;;;;;;;;;;;;;5081341;28;846;-80
2022/09/17 04:01:15;;;;;;;;;;;;;;;;;;5080979;28;1239;-80
2022/09/17 04:03:41;;;;;;;;;;;;;;;;;;5081255;28;1909;-80
2022/09/17 04:06:06;;;;;;;;;;;;;;;;;;5080149;28;865;-80
2022/09/17 04:08:31;;;;;;;;;;;;;;;;;;5081253;28;874;-80
2022/09/17 04:10:56;;;;;;;;;;;;;;;;;;5081025;28;1298;-79
2022/09/17 04:13:22;;;;;;;;;;;;;;;;;;5081119;28;835;-79
2022/09/17 04:15:47;;;;;;;;;;;;;;;;;;5080179;28;973;-79
2022/09/17 04:18:12;;;;;;;;;;;;;;;;;;5081135;28;894;-79
2022/09/17 04:20:37;;;;;;;;;;;;;;;;;;5081206;28;854;-79
2022/09/17 04:23:03;;;;;;;;;;;;;;;;;;5080786;28;1889;-79
2022/09/17 04:25:28;;;;;;;;;;;;;;;;;;5080480;28;878;-79
2022/09/17 04:27:53;;;;;;;;;;;;;;;;;;5080879;28;854;-79
2022/09/17 04:30:18;;;;;;;;;;;;;;;;;;5080836;28;881;-80
2022/09/17 04:32:44;;;;;;;;;;;;;;;;;;5080797;28;1234;-79
2022/09/17 04:35:09;;;;;;;;;;;;;;;;;;5080231;28;802;-80
2022/09/17 04:37:34;;;;;;;;;;;;;;;;;;5080726;28;964;-80
2022/09/17 04:40:00;;;;;;;;;;;;;;;;;;5080832;28;988;-79
2022/09/17 04:42:25;;;;;;;;;;;;;;;;;;5080589;28;1247;-80
2022/09/17 04:44:50;;;;;;;;;;;;;;;;;;5079858;28;1955;-80
2022/09/17 04:47:15;;;;;;;;;;;;;;;;;;5080598;28;913;-80
2022/09/17 04:49:40;;;;;;;;;;;;;;;;;;5080738;28;957;-80
2022/09/17 04:52:06;;;;;;;;;;;;;;;;;;5080438;28;1263;-80
2022/09/17 04:54:31;;;;;;;;;;;;;;;;;;5061966;28;1306;-80
2022/09/17 04:56:56;;;;;;;;;;;;;;;;;;5080563;28;794;-80
2022/09/17 04:59:22;;;;;;;;;;;;;;;;;;5080497;28;810;-80
2022/09/17 05:01:48;;;;;;;;;;;;;;;;;;5080312;28;1160;-79
2022/09/17 05:04:13;;;;;;;;;;;;;;;;;;5080435;28;1898;-81
2022/09/17 05:06:38;;;;;;;;;;;;;;;;;;5079803;28;1013;-81
2022/09/17 05:09:04;;;;;;;;;;;;;;;;;;5080452;28;1060;-81
2022/09/17 05:11:29;;;;;;;;;;;;;;;;;;5080387;28;1172;-81
2022/09/17 05:13:54;;;;;;;;;;;;;;;;;;5080068;28;846;-82
2022/09/17 05:16:19;;;;;;;;;;;;;;;;;;5079652;28;866;-78
2022/09/17 05:18:45;;;;;;;;;;;;;;;;;;5080849;28;1048;-79
2022/09/17 05:21:10;;;;;;;;;;;;;;;;;;5083708;28;1269;-80
2022/09/17 05:23:35;;;;;;;;;;;;;;;;;;5083692;28;1957;-80
2022/09/17 05:26:00;;;;;;;;;;;;;;;;;;5083004;28;825;-81
2022/09/17 05:28:29;;;;;;;;;;;;;;;;;;5083448;28;1009;-80
2022/09/17 05:30:57;;;;;;;;;;;;;;;;;;5083608;28;1176;-79
2022/09/17 05:33:22;;;;;;;;;;;;;;;;;;5065582;28;934;-79
2022/09/17 05:35:47;;;;;;;;;;;;;;;;;;5082786;28;850;-79
2022/09/17 05:38:13;;;;;;;;;;;;;;;;;;5083392;28;873;-79
2022/09/17 05:40:38;;;;;;;;;;;;;;;;;;5083469;28;830;-79
2022/09/17 05:43:04;;;;;;;;;;;;;;;;;;5083010;28;1965;-80
2022/09/17 05:45:31;;;;;;;;;;;;;;;;;;5082655;28;810;-79
2022/09/17 05:47:57;;;;;;;;;;;;;;;;;;5083296;28;996;-79
2022/09/17 05:50:22;;;;;;;;;;;;;;;;;;5083208;28;1040;-79
2022/09/17 05:52:48;;;;;;;;;;;;;;;;;;5096306;22;3689;-69
2022/09/17 05:55:13;;;;;;;;;;;;;;;;;;5082646;28;846;-70
2022/09/17 05:57:38;;;;;;;;;;;;;;;;;;5082972;28;1049;-71
2022/09/17 06:00:04;;;;;;;;;;;;;;;;;;5082976;28;798;-71
2022/09/17 06:02:29;;;;;;;;;;;;;;;;;;5065205;28;1405;-70
2022/09/17 06:04:54;;;;;;;;;;;;;;;;;;5082108;28;1906;-70
2022/09/17 06:07:20;;;;;;;;;;;;;;;;;;5083143;28;800;-71
2022/09/17 06:09:45;;;;;;;;;;;;;;;;;;5082835;28;902;-71
2022/09/17 06:12:10;;;;;;;;;;;;;;;;;;5082838;28;1164;-70
2022/09/17 06:14:35;;;;;;;;;;;;;;;;;;5081974;28;857;-71
2022/09/17 06:17:00;;;;;;;;;;;;;;;;;;5082858;28;806;-70
2022/09/17 06:19:26;;;;;;;;;;;;;;;;;;5082698;28;1044;-71
2022/09/17 06:21:51;;;;;;;;;;;;;;;;;;5082777;28;1163;-70
2022/09/17 06:24:16;;;;;;;;;;;;;;;;;;5082466;28;1890;-70
2022/09/17 06:26:41;;;;;;;;;;;;;;;;;;5082043;28;786;-71
2022/09/17 06:29:06;;;;;;;;;;;;;;;;;;5082308;28;810;-70
2022/09/17 06:31:32;;;;;;;;;;;;;;;;;;5082357;28;1159;-70
2022/09/17 06:33:57;;;;;;;;;;;;;;;;;;5082450;28;894;-71
2022/09/17 06:36:22;;;;;;;;;;;;;;;;;;5082058;28;1032;-70
2022/09/17 06:38:47;;;;;;;;;;;;;;;;;;5082432;28;957;-70
2022/09/17 06:41:13;;;;;;;;;;;;;;;;;;5082465;28;1032;-70
2022/09/17 06:43:39;;;;;;;;;;;;;;;;;;5082063;28;1957;-70
2022/09/17 06:46:04;;;;;;;;;;;;;;;;;;5081599;28;992;-70
2022/09/17 06:48:32;;;;;;;;;;;;;;;;;;5082351;28;865;-70
2022/09/17 06:51:00;;;;;;;;;;;;;;;;;;5082266;28;953;-70
2022/09/17 06:53:25;;;;;;;;;;;;;;;;;;5082109;28;1257;-70
2022/09/17 06:55:51;;;;;;;;;;;;;;;;;;5081443;28;1174;-71
2022/09/17 06:58:16;;;;;;;;;;;;;;;;;;5082245;28;806;-70
2022/09/17 07:00:41;;;;;;;;;;;;;;;;;;5082102;28;834;-71
2022/09/17 07:03:07;;;;;;;;;;;;;;;;;;5082042;28;1948;-71
2022/09/17 07:05:33;;;;;;;;;;;;;;;;;;5081477;28;826;-70
2022/09/17 07:08:00;;;;;;;;;;;;;;;;;;5082172;28;862;-70
2022/09/17 07:10:25;;;;;;;;;;;;;;;;;;5081940;28;850;-70
2022/09/17 07:12:51;;;;;;;;;;;;;;;;;;5081923;28;1179;-70
2022/09/17 07:15:16;;;;;;;;;;;;;;;;;;5063026;28;1171;-70
2022/09/17 07:17:43;;;;;;;;;;;;;;;;;;5063968;28;953;-70
2022/09/17 07:20:09;;;;;;;;;;;;;;;;;;5081837;28;819;-70
2022/09/17 07:22:34;;;;;;;;;;;;;;;;;;5081790;28;1203;-70
2022/09/17 07:24:59;;;;;;;;;;;;;;;;;;5081010;28;1914;-70
2022/09/17 07:27:29;;;;;;;;;;;;;;;;;;5063972;28;863;-70
2022/09/17 07:29:54;;;;;;;;;;;;;;;;;;5081705;28;909;-70
2022/09/17 07:32:20;;;;;;;;;;;;;;;;;;5081719;28;1139;-70
2022/09/17 07:34:45;;;;;;;;;;;;;;;;;;5081022;28;930;-70
2022/09/17 07:37:10;;;;;;;;;;;;;;;;;;5063617;28;1630;-70
2022/09/17 07:39:35;;;;;;;;;;;;;;;;;;5081679;28;791;-70
2022/09/17 07:42:03;;;;;;;;;;;;;;;;;;5080369;28;1152;-70
2022/09/17 07:44:28;;;;;;;;;;;;;;;;;;5062947;28;1981;-70
2022/09/17 07:46:53;;;;;;;;;;;;;;;;;;5081454;28;831;-70
2022/09/17 07:49:18;;;;;;;;;;;;;;;;;;5081543;28;865;-70
2022/09/17 07:51:43;;;;;;;;;;;;;;;;;;5081139;28;1266;-70
2022/09/17 07:54:09;;;;;;;;;;;;;;;;;;5081469;28;850;-70
2022/09/17 07:56:34;;;;;;;;;;;;;;;;;;5080480;28;909;-70
2022/09/17 07:59:00;;;;;;;;;;;;;;;;;;5081399;28;846;-70
2022/09/17 08:01:26;;;;;;;;;;;;;;;;;;5081141;28;1016;-70
2022/09/17 08:03:52;;;;;;;;;;;;;;;;;;5081422;28;1906;-70
2022/09/17 08:06:22;;;;;;;;;;;;;;;;;;5079959;28;814;-70
2022/09/17 08:08:47;;;;;;;;;;;;;;;;;;5081233;28;866;-70
2022/09/17 08:11:14;;;;;;;;;;;;;;;;;;5081077;28;861;-69
2022/09/17 08:13:40;;;;;;;;;;;;;;;;;;5081389;28;1148;-70
2022/09/17 08:16:10;;;;;;;;;;;;;;;;;;5080439;28;842;-70
2022/09/17 08:18:35;;;;;;;;;;;;;;;;;;5081173;28;821;-70
2022/09/17 08:21:02;;;;;;;;;;;;;;;;;;5081042;28;822;-70
2022/09/17 08:23:28;;;;;;;;;;;;;;;;;;5080937;28;1973;-70
2022/09/17 08:25:54;;;;;;;;;;;;;;;;;;5080308;28;771;-70
2022/09/17 08:28:19;;;;;;;;;;;;;;;;;;5080844;28;783;-70
2022/09/17 08:30:47;;;;;;;;;;;;;;;;;;5081011;28;865;-69
2022/09/17 08:33:12;;;;;;;;;;;;;;;;;;5080815;28;1124;-70
2022/09/17 08:35:37;;;;;;;;;;;;;;;;;;5080237;28;1040;-70
2022/09/17 08:38:02;;;;;;;;;;;;;;;;;;5080653;28;787;-70
2022/09/17 08:40:27;;;;;;;;;;;;;;;;;;5080854;28;1055;-70
2022/09/17 08:43:00;;;;;;;;;;;;;;;;;;5079327;28;1494;-70
2022/09/17 08:45:25;;;;;;;;;;;;;;;;;;5080218;28;814;-70
2022/09/17 08:47:52;;;;;;;;;;;;;;;;;;5080218;28;1032;-71
2022/09/17 08:50:31;;;;;;;;;;;;;;;;;;5080680;28;902;-70
2022/09/17 08:53:26;;;;;;;;;;;;;;;;;;5081187;28;1162;-70
2022/09/17 08:56:04;;;;;;;;;;;;;;;;;;5056759;28;1505;-70
2022/09/17 08:58:35;;;;;;;;;;;;;;;;;;5083938;28;885;-70
2022/09/17 09:01:13;;;;;;;;;;;;;;;;;;5084082;28;851;-70
2022/09/17 09:03:54;;;;;;;;;;;;;;;;;;5083831;28;1894;-70
2022/09/17 09:06:22;;;;;;;;;;;;;;;;;;5083467;28;873;-70
2022/09/17 09:08:50;;;;;;;;;;;;;;;;;;5083837;28;878;-70
2022/09/17 09:11:17;;;;;;;;;;;;;;;;;;5083923;28;858;-70
2022/09/17 09:13:50;;;;;;;;;;;;;;;;;;5083613;28;1156;-71
2022/09/17 09:16:28;;;;;;;;;;;;;;;;;;5082122;28;1277;-71
2022/09/17 09:18:54;;;;;;;;;;;;;;;;;;5083702;28;874;-70
2022/09/17 09:21:25;;;;;;;;;;;;;;;;;;5084001;28;838;-71
2022/09/17 09:24:03;;;;;;;;;;;;;;;;;;5083731;28;1895;-71
2022/09/17 09:26:43;;;;;;;;;;;;;;;;;;5083042;28;969;-71
2022/09/17 09:29:18;;;;;;;;;;;;;;;;;;5083590;28;826;-70
2022/09/17 09:31:49;;;;;;;;;;;;;;;;;;5083605;28;1172;-70
2022/09/17 09:34:15;;;;;;;;;;;;;;;;;;5083461;28;831;-70
2022/09/17 09:36:40;;;;;;;;;;;;;;;;;;5082739;28;819;-72
2022/09/17 09:39:19;;;;;;;;;;;;;;;;;;5083343;28;985;-69
2022/09/17 09:41:47;;;;;;;;;;;;;;;;;;5083418;28;1254;-70
2022/09/17 09:44:14;;;;;;;;;;;;;;;;;;5083234;28;1898;-70
2022/09/17 09:46:42;;;;;;;;;;;;;;;;;;5082754;28;803;-69
2022/09/17 09:49:10;;;;;;;;;;;;;;;;;;5083073;28;894;-69
2022/09/17 09:51:57;;;;;;;;;;;;;;;;;;5083278;28;1270;-69
2022/09/17 09:54:30;;;;;;;;;;;;;;;;;;5082031;28;1672;-68
2022/09/17 09:57:02;;;;;;;;;;;;;;;;;;5082466;28;1329;-69
2022/09/17 09:59:28;;;;;;;;;;;;;;;;;;5082967;28;838;-68
2022/09/17 10:01:53;;;;;;;;;;;;;;;;;;5083084;28;1351;-68
2022/09/17 10:04:23;;;;;;;;;;;;;;;;;;5082247;28;1975;-68
2022/09/17 10:06:50;;;;;;;;;;;;;;;;;;5082834;28;810;-68
2022/09/17 10:09:19;;;;;;;;;;;;;;;;;;5083087;28;837;-68
2022/09/17 10:11:58;;;;;;;;;;;;;;;;;;5082993;28;1258;-68
2022/09/17 10:14:25;;;;;;;;;;;;;;;;;;5082426;28;850;-68
2022/09/17 10:17:08;;;;;;;;;;;;;;;;;;5082698;28;881;-68
2022/09/17 10:19:34;;;;;;;;;;;;;;;;;;5082745;28;1035;-69
2022/09/17 10:22:16;;;;;;;;;;;;;;;;;;5082756;28;1258;-71
2022/09/17 10:24:42;;;;;;;;;;;;;;;;;;5081938;28;1898;-71
2022/09/17 10:27:12;;;;;;;;;;;;;;;;;;5082912;28;866;-70
2022/09/17 10:29:41;;;;;;;;;;;;;;;;;;5082747;28;873;-70
2022/09/17 10:32:13;;;;;;;;;;;;;;;;;;5082620;28;1176;-70
2022/09/17 10:34:39;;;;;;;;;;;;;;;;;;5081911;28;953;-71
2022/09/17 10:37:24;;;;;;;;;;;;;;;;;;5082404;28;798;-70
2022/09/17 10:39:50;;;;;;;;;;;;;;;;;;5082372;28;1390;-70
2022/09/17 10:42:16;;;;;;;;;;;;;;;;;;5082470;28;1208;-70
2022/09/17 10:44:57;;;;;;;;;;;;;;;;;;5081541;28;1927;-70
2022/09/17 10:47:29;;;;;;;;;;;;;;;;;;5082405;28;794;-70
2022/09/17 10:49:55;;;;;;;;;;;;;;;;;;5082437;28;949;-70
2022/09/17 10:52:32;;;;;;;;;;;;;;;;;;5082211;28;1164;-70
2022/09/17 10:55:16;;;;;;;;;;;;;;;;;;5081629;28;1078;-70
2022/09/17 10:57:41;;;;;;;;;;;;;;;;;;5082485;28;849;-70
2022/09/17 11:00:13;;;;;;;;;;;;;;;;;;5082065;28;913;-70
2022/09/17 11:02:50;;;;;;;;;;;;;;;;;;5082176;28;1174;-70
2022/09/17 11:05:28;;;;;;;;;;;;;;;;;;5081409;28;1955;-70
2022/09/17 11:07:56;;;;;;;;;;;;;;;;;;5081990;28;882;-70
2022/09/17 11:10:28;;;;;;;;;;;;;;;;;;5082054;28;850;-70
2022/09/17 11:13:10;;;;;;;;;;;;;;;;;;5082203;28;1168;-70
2022/09/17 11:15:54;;;;;;;;;;;;;;;;;;5081254;28;992;-70
2022/09/17 11:18:25;;;;;;;;;;;;;;;;;;5082039;28;810;-70
2022/09/17 11:21:02;;;;;;;;;;;;;;;;;;5081618;28;861;-69
2022/09/17 11:23:42;;;;;;;;;;;;;;;;;;5063900;28;1955;-70
2022/09/17 11:26:46;;;;;;;;;;;;;;;;;;5081044;28;806;-70
2022/09/17 11:29:26;;;;;;;;;;;;;;;;;;5019518;28;1044;-70
2022/09/17 11:31:59;;;;;;;;;;;;;;;;;;5019444;28;1283;-70
2022/09/17 11:34:50;;;;;;;;;;;;;;;;;;5057208;28;977;-70
2022/09/17 11:37:22;;;;;;;;;;;;;;;;;;5057941;28;1246;-70
2022/09/17 11:39:53;;;;;;;;;;;;;;;;;;5081609;28;1056;-70
2022/09/17 11:42:23;;;;;;;;;;;;;;;;;;5081365;28;1235;-70
2022/09/17 11:45:10;;;;;;;;;;;;;;;;;;5080977;28;1963;-70
2022/09/17 11:47:40;;;;;;;;;;;;;;;;;;5081564;28;1302;-70
2022/09/17 11:50:16;;;;;;;;;;;;;;;;;;5081358;28;861;-70
2022/09/17 11:52:59;;;;;;;;;;;;;;;;;;5100676;22;3616;-68
2022/09/17 11:55:30;;;;;;;;;;;;;;;;;;5101210;28;857;-65
2022/09/17 11:57:59;;;;;;;;;;;;;;;;;;5101497;28;1146;-65
2022/09/17 12:00:27;;;;;;;;;;;;;;;;;;5101515;28;1083;-65
2022/09/17 12:02:52;;;;;;;;;;;;;;;;;;5101795;28;1140;-65
2022/09/17 12:05:18;;;;;;;;;;;;;;;;;;5100798;28;1906;-66
2022/09/17 12:07:53;;;;;;;;;;;;;;;;;;5101407;28;1020;-66
2022/09/17 12:10:24;;;;;;;;;;;;;;;;;;5101504;28;873;-66
2022/09/17 12:12:53;;;;;;;;;;;;;;;;;;5101211;28;1254;-66
2022/09/17 12:15:22;;;;;;;;;;;;;;;;;;5100860;28;814;-66
2022/09/17 12:18:01;;;;;;;;;;;;;;;;;;5101294;28;771;-66
2022/09/17 12:20:28;;;;;;;;;;;;;;;;;;5101433;28;1050;-66
2022/09/17 12:22:56;;;;;;;;;;;;;;;;;;5101204;28;1246;-66
2022/09/17 12:25:21;;;;;;;;;;;;;;;;;;5100648;28;1878;-66
2022/09/17 12:27:49;;;;;;;;;;;;;;;;;;5101765;28;854;-66
2022/09/17 12:30:28;;;;;;;;;;;;;;;;;;5104950;28;873;-66
2022/09/17 12:33:02;;;;;;;;;;;;;;;;;;5104700;28;1179;-66
2022/09/17 12:35:46;;;;;;;;;;;;;;;;;;5104483;28;810;-66
2022/09/17 12:38:11;;;;;;;;;;;;;;;;;;5104601;28;933;-66
2022/09/17 12:40:49;;;;;;;;;;;;;;;;;;5104778;28;858;-66
2022/09/17 12:43:32;;;;;;;;;;;;;;;;;;5104777;28;1889;-66
2022/09/17 12:46:05;;;;;;;;;;;;;;;;;;5104085;28;981;-66
2022/09/17 12:48:40;;;;;;;;;;;;;;;;;;5104428;28;795;-66
2022/09/17 12:51:12;;;;;;;;;;;;;;;;;;5104615;28;957;-66
2022/09/17 12:53:55;;;;;;;;;;;;;;;;;;5104267;28;1262;-66
2022/09/17 12:56:20;;;;;;;;;;;;;;;;;;5103921;28;924;-67
2022/09/17 12:59:04;;;;;;;;;;;;;;;;;;5104366;28;1035;-67
2022/09/17 13:01:33;;;;;;;;;;;;;;;;;;5104645;28;846;-67
2022/09/17 13:04:13;;;;;;;;;;;;;;;;;;5104306;28;1948;-66
2022/09/17 13:06:50;;;;;;;;;;;;;;;;;;5103672;28;846;-68
2022/09/17 13:09:22;;;;;;;;;;;;;;;;;;5104394;28;890;-65
2022/09/17 13:11:47;;;;;;;;;;;;;;;;;;5104272;28;1192;-65
2022/09/17 13:14:27;;;;;;;;;;;;;;;;;;5104238;28;882;-66
2022/09/17 13:16:55;;;;;;;;;;;;;;;;;;5103895;28;1039;-65
2022/09/17 13:19:29;;;;;;;;;;;;;;;;;;5104155;28;830;-66
2022/09/17 13:22:14;;;;;;;;;;;;;;;;;;5103855;28;1180;-65
2022/09/17 13:24:40;;;;;;;;;;;;;;;;;;5102651;28;1890;-65
2022/09/17 13:27:18;;;;;;;;;;;;;;;;;;5103857;28;814;-66
2022/09/17 13:29:46;;;;;;;;;;;;;;;;;;5103940;28;827;-65
2022/09/17 13:32:30;;;;;;;;;;;;;;;;;;5103685;28;1239;-65
2022/09/17 13:34:55;;;;;;;;;;;;;;;;;;5103421;28;1029;-65
2022/09/17 13:37:21;;;;;;;;;;;;;;;;;;5103753;28;898;-66
2022/09/17 13:39:47;;;;;;;;;;;;;;;;;;5102518;28;865;-66
2022/09/17 13:42:18;;;;;;;;;;;;;;;;;;5103963;28;1144;-66
2022/09/17 13:44:46;;;;;;;;;;;;;;;;;;5102954;28;1952;-66
2022/09/17 13:47:17;;;;;;;;;;;;;;;;;;5103361;28;861;-66
2022/09/17 13:49:44;;;;;;;;;;;;;;;;;;5103520;28;799;-66
2022/09/17 13:52:09;;;;;;;;;;;;;;;;;;5103602;28;1287;-66
2022/09/17 13:54:38;;;;;;;;;;;;;;;;;;5102812;28;917;-66
2022/09/17 13:57:10;;;;;;;;;;;;;;;;;;5103518;28;786;-66
2022/09/17 13:59:36;;;;;;;;;;;;;;;;;;5103535;28;889;-66
2022/09/17 14:02:16;;;;;;;;;;;;;;;;;;5103543;28;1176;-66
2022/09/17 14:04:42;;;;;;;;;;;;;;;;;;5102615;28;1890;-66
2022/09/17 14:07:22;;;;;;;;;;;;;;;;;;5103691;28;1028;-66
2022/09/17 14:10:16;;;;;;;;;;;;;;;;;;5103039;28;823;-66
2022/09/17 14:12:46;;;;;;;;;;;;;;;;;;5085380;28;1502;-66
2022/09/17 14:15:30;;;;;;;;;;;;;;;;;;5102540;28;886;-66
2022/09/17 14:17:57;;;;;;;;;;;;;;;;;;5103163;28;977;-66
2022/09/17 14:20:23;;;;;;;;;;;;;;;;;;5103230;28;846;-66
2022/09/17 14:23:01;;;;;;;;;;;;;;;;;;5103232;28;1152;-66
2022/09/17 14:25:46;;;;;;;;;;;;;;;;;;5102594;28;1952;-66
2022/09/17 14:28:23;;;;;;;;;;;;;;;;;;5102300;28;1064;-66
2022/09/17 14:30:49;;;;;;;;;;;;;;;;;;5102955;28;1063;-67
2022/09/17 14:33:21;;;;;;;;;;;;;;;;;;5102888;28;1159;-66
2022/09/17 14:35:48;;;;;;;;;;;;;;;;;;5102297;28;861;-66
2022/09/17 14:38:14;;;;;;;;;;;;;;;;;;5102924;28;866;-66
2022/09/17 14:40:47;;;;;;;;;;;;;;;;;;5101934;28;878;-66
2022/09/17 14:43:18;;;;;;;;;;;;;;;;;;5102780;28;1208;-66
2022/09/17 14:45:46;;;;;;;;;;;;;;;;;;5101964;28;918;-66
2022/09/17 14:48:24;;;;;;;;;;;;;;;;;;5102779;28;923;-66
2022/09/17 14:50:49;;;;;;;;;;;;;;;;;;5102528;28;889;-67
2022/09/17 14:53:15;;;;;;;;;;;;;;;;;;5102463;28;1167;-66
2022/09/17 14:55:41;;;;;;;;;;;;;;;;;;5102000;28;893;-67
2022/09/17 14:58:21;;;;;;;;;;;;;;;;;;5102653;28;869;-67
2022/09/17 15:00:50;;;;;;;;;;;;;;;;;;5102458;28;898;-67
2022/09/17 15:03:20;;;;;;;;;;;;;;;;;;5102288;28;1969;-66
2022/09/17 15:05:46;;;;;;;;;;;;;;;;;;5101709;28;803;-66
2022/09/17 15:08:14;;;;;;;;;;;;;;;;;;5102643;28;1071;-68
2022/09/17 15:10:58;;;;;;;;;;;;;;;;;;5102206;28;779;-67
2022/09/17 15:13:27;;;;;;;;;;;;;;;;;;5102296;28;1139;-67
2022/09/17 15:15:57;;;;;;;;;;;;;;;;;;5101705;28;941;-67
2022/09/17 15:18:28;;;;;;;;;;;;;;;;;;5102443;28;877;-67
2022/09/17 15:20:54;;;;;;;;;;;;;;;;;;5102141;28;861;-67
2022/09/17 15:23:22;;;;;;;;;;;;;;;;;;5102119;28;1961;-67
2022/09/17 15:25:49;;;;;;;;;;;;;;;;;;5101383;28;976;-66
2022/09/17 15:28:28;;;;;;;;;;;;;;;;;;5084235;28;873;-67
2022/09/17 15:30:54;;;;;;;;;;;;;;;;;;5101896;28;795;-66
2022/09/17 15:33:19;;;;;;;;;;;;;;;;;;5102295;28;1238;-69
2022/09/17 15:36:17;;;;;;;;;;;;;;;;;;5101277;28;799;-66
2022/09/17 15:38:43;;;;;;;;;;;;;;;;;;5056872;28;1402;-67
2022/09/17 15:41:11;;;;;;;;;;;;;;;;;;5101822;28;1032;-67
2022/09/17 15:43:37;;;;;;;;;;;;;;;;;;5101782;28;1952;-66
2022/09/17 15:46:23;;;;;;;;;;;;;;;;;;5101281;28;794;-67
2022/09/17 15:48:48;;;;;;;;;;;;;;;;;;5102005;28;900;-67
2022/09/17 15:51:22;;;;;;;;;;;;;;;;;;5101583;28;790;-66
2022/09/17 15:53:51;;;;;;;;;;;;;;;;;;5101632;28;1179;-66
2022/09/17 15:56:18;;;;;;;;;;;;;;;;;;5100898;28;783;-66
2022/09/17 15:58:43;;;;;;;;;;;;;;;;;;5101761;28;925;-67
2022/09/17 16:01:14;;;;;;;;;;;;;;;;;;5083209;28;1084;-67
2022/09/17 16:03:39;;;;;;;;;;;;;;;;;;5080557;28;1953;-67
2022/09/17 16:06:16;;;;;;;;;;;;;;;;;;5080639;28;846;-67
2022/09/17 16:08:42;;;;;;;;;;;;;;;;;;5081023;28;964;-66
2022/09/17 16:11:07;;;;;;;;;;;;;;;;;;5081075;28;976;-67
2022/09/17 16:13:33;;;;;;;;;;;;;;;;;;5089818;28;1238;-67
2022/09/17 16:15:58;;;;;;;;;;;;;;;;;;5083158;28;810;-66
2022/09/17 16:18:23;;;;;;;;;;;;;;;;;;5081031;28;1008;-67
2022/09/17 16:20:48;;;;;;;;;;;;;;;;;;5081079;28;791;-66
2022/09/17 16:23:13;;;;;;;;;;;;;;;;;;5080912;28;1210;-66
2022/09/17 16:25:39;;;;;;;;;;;;;;;;;;5080386;28;1886;-66
2022/09/17 16:28:15;;;;;;;;;;;;;;;;;;5080928;28;866;-66
2022/09/17 16:30:43;;;;;;;;;;;;;;;;;;5081234;28;740;-66
2022/09/17 16:33:10;;;;;;;;;;;;;;;;;;5081040;28;1139;-66
2022/09/17 16:35:37;;;;;;;;;;;;;;;;;;5080305;28;819;-66
2022/09/17 16:38:02;;;;;;;;;;;;;;;;;;5081051;28;917;-66
2022/09/17 16:40:27;;;;;;;;;;;;;;;;;;5080851;28;787;-66
2022/09/17 16:42:53;;;;;;;;;;;;;;;;;;5080663;28;1227;-67
2022/09/17 16:45:19;;;;;;;;;;;;;;;;;;5080118;28;1961;-67
2022/09/17 16:47:44;;;;;;;;;;;;;;;;;;5080617;28;901;-66
2022/09/17 16:50:14;;;;;;;;;;;;;;;;;;5080676;28;854;-67
2022/09/17 16:52:39;;;;;;;;;;;;;;;;;;5080465;28;1152;-66
2022/09/17 16:55:05;;;;;;;;;;;;;;;;;;5080052;28;771;-67
2022/09/17 16:57:31;;;;;;;;;;;;;;;;;;5080550;28;870;-67
2022/09/17 16:59:56;;;;;;;;;;;;;;;;;;5080597;28;1044;-67
2022/09/17 17:02:21;;;;;;;;;;;;;;;;;;5080353;28;1168;-67
2022/09/17 17:04:47;;;;;;;;;;;;;;;;;;5079875;28;1898;-68
2022/09/17 17:07:12;;;;;;;;;;;;;;;;;;5080392;28;894;-65
2022/09/17 17:09:37;;;;;;;;;;;;;;;;;;5080423;28;1052;-67
2022/09/17 17:12:03;;;;;;;;;;;;;;;;;;5080212;28;1274;-71
2022/09/17 17:14:28;;;;;;;;;;;;;;;;;;5081516;28;917;-67
2022/09/17 17:16:53;;;;;;;;;;;;;;;;;;5083977;28;898;-67
2022/09/17 17:19:18;;;;;;;;;;;;;;;;;;5083729;28;858;-67
2022/09/17 17:21:44;;;;;;;;;;;;;;;;;;5083660;28;1160;-67
2022/09/17 17:24:09;;;;;;;;;;;;;;;;;;5083514;28;1890;-67
2022/09/17 17:26:35;;;;;;;;;;;;;;;;;;5082980;28;909;-67